Time;durP1;ratioP1;P1;durP2;ratioP2;P2;SDS_P1;SDS_P2;PMS_P1;PMS_P2;Temp;Humidity;BMP_temperature;BMP_pressure;BME280_temperature;BME280_humidity;BME280_pressure;Samples;Min_cycle;Max_cycle;Signal;HPM_P1;HPM_P2
2021/07/15 00:00:26;;;;;;;17.52;9.52;;;;;;;;;;6221046;23;20940;-88
2021/07/15 00:03:31;;;;;;;14.50;9.68;;;;;;;;;;6221594;22;20297;-89
2021/07/15 00:06:36;;;;;;;17.70;8.77;;;;;;;;;;6221146;23;20279;-89
2021/07/15 00:09:41;;;;;;;20.85;9.65;;;;;;;;;;6221775;22;20325;-88
2021/07/15 00:12:48;;;;;;;15.63;8.88;;;;;;;;;;6220606;23;20342;-88
2021/07/15 00:15:56;;;;;;;15.05;9.30;;;;;;;;;;6219962;23;20198;-88
2021/07/15 00:19:01;;;;;;;14.43;8.45;;;;;;;;;;6221404;23;20167;-88
2021/07/15 00:22:06;;;;;;;20.45;9.13;;;;;;;;;;6221404;23;20183;-88
2021/07/15 00:25:12;;;;;;;16.00;8.80;;;;;;;;;;6222010;23;20171;-89
2021/07/15 00:28:19;;;;;;;19.45;8.43;;;;;;;;;;6221635;22;20614;-89
2021/07/15 00:31:24;;;;;;;24.70;8.80;;;;;;;;;;6219766;23;20524;-89
2021/07/15 00:34:29;;;;;;;18.33;7.40;;;;;;;;;;6221982;23;20190;-89
2021/07/15 00:37:34;;;;;;;17.40;7.88;;;;;;;;;;6221659;23;20190;-89
2021/07/15 00:40:39;;;;;;;14.02;7.78;;;;;;;;;;6223757;23;20211;-89
2021/07/15 00:43:46;;;;;;;10.38;6.72;;;;;;;;;;6222474;22;20527;-89
2021/07/15 00:46:51;;;;;;;12.32;6.85;;;;;;;;;;6221561;23;20183;-89
2021/07/15 00:49:55;;;;;;;14.68;6.65;;;;;;;;;;6222073;23;20168;-89
2021/07/15 00:53:03;;;;;;;13.43;6.88;;;;;;;;;;6223744;23;20180;-89
2021/07/15 00:56:09;;;;;;;12.38;7.25;;;;;;;;;;6224029;22;20162;-88
2021/07/15 00:59:20;;;;;;;15.15;6.93;;;;;;;;;;6240664;23;20282;-89
2021/07/15 01:02:26;;;;;;;16.02;7.35;;;;;;;;;;6206752;23;20643;-88
2021/07/15 01:05:32;;;;;;;12.30;7.00;;;;;;;;;;6222137;22;20271;-88
2021/07/15 01:08:38;;;;;;;13.55;6.93;;;;;;;;;;6240519;22;20237;-90
2021/07/15 01:11:47;;;;;;;12.45;6.93;;;;;;;;;;6240963;23;20238;-89
2021/07/15 01:15:02;;;;;;;12.45;7.82;;;;;;;;;;6222302;22;20191;-88
2021/07/15 01:18:12;;;;;;;14.90;7.22;;;;;;;;;;6221616;23;20171;-90
2021/07/15 01:21:37;;;;;;;14.60;7.00;;;;;;;;;;6222940;22;20159;-88
2021/07/15 01:24:57;;;;;;;13.77;7.20;;;;;;;;;;6223462;23;20299;-90
2021/07/15 01:28:06;;;;;;;8.77;6.03;;;;;;;;;;6221571;22;20287;-89
2021/07/15 01:31:13;;;;;;;9.13;6.18;;;;;;;;;;6222540;22;20167;-88
2021/07/15 01:34:19;;;;;;;19.05;7.47;;;;;;;;;;6224102;22;20183;-88
2021/07/15 01:37:25;;;;;;;18.83;7.68;;;;;;;;;;6222579;22;20630;-88
2021/07/15 01:40:35;;;;;;;13.35;6.80;;;;;;;;;;6223296;23;20269;-89
2021/07/15 01:43:50;;;;;;;15.27;7.32;;;;;;;;;;6224419;23;20662;-90
2021/07/15 01:46:57;;;;;;;14.65;8.38;;;;;;;;;;6220945;23;20367;-89
2021/07/15 01:50:03;;;;;;;16.30;8.75;;;;;;;;;;6223072;22;20171;-89
2021/07/15 01:53:09;;;;;;;17.40;8.95;;;;;;;;;;6204971;22;20203;-90
2021/07/15 01:56:15;;;;;;;15.73;7.93;;;;;;;;;;6226064;22;20167;-89
2021/07/15 01:59:22;;;;;;;18.85;9.82;;;;;;;;;;6222525;22;20171;-88
2021/07/15 02:02:30;;;;;;;18.88;9.15;;;;;;;;;;6219881;23;20273;-88
2021/07/15 02:05:36;;;;;;;17.95;9.70;;;;;;;;;;6223385;22;20183;-87
2021/07/15 02:08:43;;;;;;;18.90;9.25;;;;;;;;;;6221952;23;20195;-88
2021/07/15 02:11:48;;;;;;;16.88;8.88;;;;;;;;;;6221931;23;20207;-88
2021/07/15 02:14:54;;;;;;;10.25;6.15;;;;;;;;;;6221562;22;20737;-88
2021/07/15 02:18:01;;;;;;;12.65;5.50;;;;;;;;;;6222574;23;20167;-87
2021/07/15 02:21:06;;;;;;;11.57;5.43;;;;;;;;;;6222450;22;20187;-86
2021/07/15 02:24:12;;;;;;;9.18;5.35;;;;;;;;;;6223361;22;20286;-89
2021/07/15 02:27:18;;;;;;;14.73;7.03;;;;;;;;;;6223729;23;20575;-87
2021/07/15 02:30:24;;;;;;;11.40;6.53;;;;;;;;;;6223697;23;20163;-88
2021/07/15 02:33:31;;;;;;;9.32;5.30;;;;;;;;;;6223967;23;20482;-87
2021/07/15 02:36:39;;;;;;;10.30;5.05;;;;;;;;;;6221436;22;20191;-87
2021/07/15 02:39:43;;;;;;;8.93;4.90;;;;;;;;;;6223078;23;20176;-87
2021/07/15 02:42:50;;;;;;;9.75;4.53;;;;;;;;;;6223473;22;20570;-88
2021/07/15 02:45:55;;;;;;;11.60;4.53;;;;;;;;;;6223747;22;20586;-88
2021/07/15 02:49:01;;;;;;;10.45;4.55;;;;;;;;;;6223705;22;20179;-87
2021/07/15 02:52:06;;;;;;;14.73;5.43;;;;;;;;;;6221916;23;20182;-86
2021/07/15 02:55:14;;;;;;;15.13;6.70;;;;;;;;;;6223348;22;20222;-85
2021/07/15 02:58:22;;;;;;;12.60;6.78;;;;;;;;;;6240868;23;20510;-89
2021/07/15 03:01:28;;;;;;;17.02;6.72;;;;;;;;;;6223681;22;20183;-88
2021/07/15 03:04:39;;;;;;;13.38;7.53;;;;;;;;;;6223422;23;20183;-87
2021/07/15 03:07:51;;;;;;;17.63;6.35;;;;;;;;;;6241019;23;20760;-88
2021/07/15 03:10:57;;;;;;;16.85;7.10;;;;;;;;;;6223328;23;20232;-87
2021/07/15 03:14:03;;;;;;;17.10;6.78;;;;;;;;;;6226544;22;20194;-88
2021/07/15 03:17:11;;;;;;;13.63;7.20;;;;;;;;;;6225926;22;20167;-88
2021/07/15 03:20:19;;;;;;;14.82;6.97;;;;;;;;;;6225884;23;20246;-89
2021/07/15 03:23:25;;;;;;;11.93;6.28;;;;;;;;;;6223249;23;20247;-88
2021/07/15 03:26:32;;;;;;;10.15;5.65;;;;;;;;;;6223587;23;20179;-87
2021/07/15 03:29:38;;;;;;;15.20;6.10;;;;;;;;;;6226018;23;20175;-87
2021/07/15 03:32:44;;;;;;;14.15;5.30;;;;;;;;;;6225403;23;20182;-89
2021/07/15 03:35:52;;;;;;;12.60;5.45;;;;;;;;;;6225397;23;20215;-87
2021/07/15 03:38:57;;;;;;;9.38;5.13;;;;;;;;;;6224614;23;20171;-87
2021/07/15 03:42:03;;;;;;;12.38;5.00;;;;;;;;;;6224820;23;20626;-87
2021/07/15 03:45:08;;;;;;;14.05;5.10;;;;;;;;;;6223113;23;20182;-88
2021/07/15 03:48:14;;;;;;;9.57;5.03;;;;;;;;;;6226434;23;20194;-88
2021/07/15 03:51:21;;;;;;;9.35;4.82;;;;;;;;;;6224536;22;20171;-88
2021/07/15 03:54:27;;;;;;;10.18;4.93;;;;;;;;;;6222666;23;20206;-87
2021/07/15 03:57:33;;;;;;;9.13;4.68;;;;;;;;;;6223280;22;20167;-88
2021/07/15 04:00:42;;;;;;;9.20;4.32;;;;;;;;;;6241264;22;20218;-86
2021/07/15 04:08:08;;;;;;;8.02;4.35;;;;;;;;;;6225793;23;20171;-87
2021/07/15 04:11:16;;;;;;;11.13;4.35;;;;;;;;;;6224828;22;20271;-87
2021/07/15 04:14:25;;;;;;;10.20;4.30;;;;;;;;;;6244158;23;20194;-87
2021/07/15 04:17:32;;;;;;;11.50;4.30;;;;;;;;;;6223806;22;20559;-87
2021/07/15 04:20:38;;;;;;;11.02;4.20;;;;;;;;;;6223635;23;20182;-90
2021/07/15 04:23:45;;;;;;;11.55;4.95;;;;;;;;;;6224794;23;20175;-88
2021/07/15 04:26:51;;;;;;;11.52;4.30;;;;;;;;;;6225628;23;20174;-90
2021/07/15 04:30:00;;;;;;;13.05;4.93;;;;;;;;;;6224507;22;20264;-89
2021/07/15 04:33:06;;;;;;;12.45;4.38;;;;;;;;;;6242570;23;20168;-88
2021/07/15 04:36:12;;;;;;;8.27;3.83;;;;;;;;;;6221879;22;20193;-88
2021/07/15 04:39:18;;;;;;;16.73;4.38;;;;;;;;;;6223197;22;20198;-88
2021/07/15 04:42:25;;;;;;;10.65;3.80;;;;;;;;;;6225587;23;20171;-88
2021/07/15 04:45:30;;;;;;;10.93;3.88;;;;;;;;;;6242650;23;20171;-88
2021/07/15 04:48:36;;;;;;;6.75;4.00;;;;;;;;;;6225636;23;20231;-88
2021/07/15 04:51:42;;;;;;;7.00;3.50;;;;;;;;;;6224563;23;20159;-88
2021/07/15 04:54:52;;;;;;;5.03;2.97;;;;;;;;;;6223861;23;20178;-89
2021/07/15 04:57:57;;;;;;;9.48;3.72;;;;;;;;;;6227119;23;20223;-88
2021/07/15 05:01:02;;;;;;;6.78;3.50;;;;;;;;;;6225765;22;20166;-88
2021/07/15 05:04:07;;;;;;;6.70;2.88;;;;;;;;;;6225101;23;20263;-87
2021/07/15 05:07:12;;;;;;;7.38;3.00;;;;;;;;;;6223002;22;20218;-88
2021/07/15 05:10:19;;;;;;;8.25;2.92;;;;;;;;;;6225525;23;20211;-88
2021/07/15 05:13:24;;;;;;;5.55;3.20;;;;;;;;;;6225218;22;20290;-88
2021/07/15 05:16:30;;;;;;;12.23;3.03;;;;;;;;;;6242674;23;20171;-88
2021/07/15 05:19:36;;;;;;;12.25;3.90;;;;;;;;;;6223853;22;20167;-89
2021/07/15 05:22:41;;;;;;;5.65;2.80;;;;;;;;;;6224545;23;20167;-88
2021/07/15 05:25:50;;;;;;;7.25;3.65;;;;;;;;;;6223521;23;20155;-88
2021/07/15 05:28:57;;;;;;;11.33;4.00;;;;;;;;;;6225416;23;20413;-88
2021/07/15 05:32:02;;;;;;;7.72;3.30;;;;;;;;;;6227076;23;20619;-88
2021/07/15 05:35:08;;;;;;;6.00;3.33;;;;;;;;;;6243012;22;20198;-89
2021/07/15 05:38:16;;;;;;;6.38;3.25;;;;;;;;;;6224959;22;20163;-89
2021/07/15 05:41:23;;;;;;;8.85;3.35;;;;;;;;;;6223493;22;20174;-88
2021/07/15 05:44:30;;;;;;;6.95;3.25;;;;;;;;;;6224312;22;20187;-88
2021/07/15 05:47:36;;;;;;;8.55;3.10;;;;;;;;;;6225324;22;20178;-89
2021/07/15 05:50:41;;;;;;;5.30;3.25;;;;;;;;;;6227034;22;20271;-90
2021/07/15 05:53:46;;;;;;;4.68;3.05;;;;;;;;;;6227493;22;20186;-91
2021/07/15 05:56:53;;;;;;;6.25;3.03;;;;;;;;;;6223902;23;20175;-88
2021/07/15 05:59:58;;;;;;;6.43;2.90;;;;;;;;;;6223333;22;20154;-89
2021/07/15 06:03:04;;;;;;;4.28;2.45;;;;;;;;;;6227479;22;20150;-88
2021/07/15 06:06:09;;;;;;;5.97;2.80;;;;;;;;;;6226342;22;20634;-89
2021/07/15 06:09:15;;;;;;;7.50;2.65;;;;;;;;;;6227380;22;20285;-91
2021/07/15 06:12:22;;;;;;;6.18;2.75;;;;;;;;;;6227343;23;20270;-90
2021/07/15 06:15:27;;;;;;;7.55;2.72;;;;;;;;;;6223810;23;20641;-88
2021/07/15 06:18:32;;;;;;;8.98;2.70;;;;;;;;;;6226258;23;20428;-90
2021/07/15 06:21:38;;;;;;;8.77;3.63;;;;;;;;;;6228159;22;20397;-92
2021/07/15 06:24:45;;;;;;;5.80;2.90;;;;;;;;;;6228297;23;20191;-90
2021/07/15 06:27:53;;;;;;;7.18;2.20;;;;;;;;;;6226551;22;20235;-90
2021/07/15 06:30:58;;;;;;;3.13;2.25;;;;;;;;;;6226942;23;20175;-91
2021/07/15 06:34:05;;;;;;;15.18;2.95;;;;;;;;;;6226697;23;20175;-89
2021/07/15 06:37:10;;;;;;;6.25;2.33;;;;;;;;;;6227136;23;20269;-87
2021/07/15 06:40:15;;;;;;;8.52;2.60;;;;;;;;;;6226145;23;20174;-88
2021/07/15 06:43:21;;;;;;;4.75;2.30;;;;;;;;;;6226153;23;20190;-88
2021/07/15 06:46:33;;;;;;;6.07;2.10;;;;;;;;;;6226039;23;20254;-90
2021/07/15 06:49:38;;;;;;;4.88;2.80;;;;;;;;;;6225950;23;20231;-92
2021/07/15 06:52:43;;;;;;;9.77;2.58;;;;;;;;;;6226139;23;20289;-91
2021/07/15 06:55:48;;;;;;;6.82;1.90;;;;;;;;;;6224999;23;20263;-91
2021/07/15 06:58:55;;;;;;;6.68;2.30;;;;;;;;;;6225840;22;20215;-89
2021/07/15 07:02:03;;;;;;;6.82;2.30;;;;;;;;;;6225527;23;20245;-88
2021/07/15 07:05:18;;;;;;;10.18;2.58;;;;;;;;;;6223563;23;20190;-88
2021/07/15 07:08:24;;;;;;;6.13;1.90;;;;;;;;;;6225439;22;20184;-89
2021/07/15 07:11:28;;;;;;;5.78;1.90;;;;;;;;;;6227027;23;20187;-89
2021/07/15 07:14:38;;;;;;;6.18;2.03;;;;;;;;;;6225307;23;20182;-90
2021/07/15 07:17:44;;;;;;;7.43;1.90;;;;;;;;;;6223750;23;20937;-91
2021/07/15 07:20:49;;;;;;;5.15;1.90;;;;;;;;;;6225426;23;20294;-87
2021/07/15 07:23:54;;;;;;;4.63;1.90;;;;;;;;;;6226080;23;20155;-89
2021/07/15 07:26:59;;;;;;;3.17;1.60;;;;;;;;;;6225382;22;20166;-88
2021/07/15 07:30:07;;;;;;;7.97;2.03;;;;;;;;;;6224824;23;20167;-89
2021/07/15 07:33:13;;;;;;;10.35;1.77;;;;;;;;;;6244606;23;20302;-88
2021/07/15 07:36:18;;;;;;;6.55;2.05;;;;;;;;;;6229272;23;20282;-89
2021/07/15 07:39:23;;;;;;;8.93;2.22;;;;;;;;;;6230449;23;20167;-87
2021/07/15 07:42:29;;;;;;;2.15;1.40;;;;;;;;;;6228541;23;20219;-88
2021/07/15 07:45:35;;;;;;;2.42;1.52;;;;;;;;;;6228198;22;20174;-89
2021/07/15 07:48:41;;;;;;;2.90;1.40;;;;;;;;;;6229735;22;20163;-89
2021/07/15 07:51:46;;;;;;;5.60;1.20;;;;;;;;;;6228037;23;20288;-91
2021/07/15 07:54:51;;;;;;;5.43;1.27;;;;;;;;;;6228010;23;20175;-89
2021/07/15 07:57:56;;;;;;;3.58;1.40;;;;;;;;;;6226144;23;20159;-87
2021/07/15 08:01:03;;;;;;;1.92;1.33;;;;;;;;;;6230011;22;20195;-87
2021/07/15 08:04:09;;;;;;;7.72;1.40;;;;;;;;;;6229029;23;20175;-91
2021/07/15 08:07:15;;;;;;;2.40;1.23;;;;;;;;;;6228618;23;20642;-88
2021/07/15 08:10:21;;;;;;;2.35;1.05;;;;;;;;;;6227073;23;20171;-88
2021/07/15 08:13:26;;;;;;;2.22;1.00;;;;;;;;;;6226503;23;20222;-88
2021/07/15 08:16:33;;;;;;;2.42;1.00;;;;;;;;;;6225403;23;20191;-88
2021/07/15 08:19:38;;;;;;;2.00;1.33;;;;;;;;;;6225264;23;20167;-89
2021/07/15 08:22:43;;;;;;;3.55;1.08;;;;;;;;;;6225816;23;20178;-90
2021/07/15 08:25:48;;;;;;;1.70;0.80;;;;;;;;;;6225487;23;20199;-90
2021/07/15 08:28:53;;;;;;;0.70;0.70;;;;;;;;;;6225571;23;20182;-91
2021/07/15 08:32:00;;;;;;;1.33;0.80;;;;;;;;;;6225853;23;20631;-91
2021/07/15 08:35:06;;;;;;;3.15;0.70;;;;;;;;;;6224986;23;20240;-91
2021/07/15 08:38:11;;;;;;;2.08;0.80;;;;;;;;;;6225785;23;20171;-91
2021/07/15 08:41:17;;;;;;;1.73;0.80;;;;;;;;;;6227782;23;20691;-91
2021/07/15 08:44:23;;;;;;;1.33;0.85;;;;;;;;;;6227840;23;20199;-91
2021/07/15 08:47:30;;;;;;;0.50;0.50;;;;;;;;;;6227596;23;20159;-90
2021/07/15 08:50:35;;;;;;;1.30;0.90;;;;;;;;;;6224503;22;20171;-91
2021/07/15 08:53:41;;;;;;;0.80;0.50;;;;;;;;;;6225429;22;20163;-90
2021/07/15 08:56:47;;;;;;;1.08;0.63;;;;;;;;;;6239614;23;20313;-89
2021/07/15 08:59:53;;;;;;;2.78;1.10;;;;;;;;;;6223160;23;20167;-89
2021/07/15 09:02:59;;;;;;;1.35;0.80;;;;;;;;;;6224853;23;20171;-87
2021/07/15 09:06:04;;;;;;;5.68;2.45;;;;;;;;;;6224334;23;20167;-89
2021/07/15 09:09:10;;;;;;;1.75;0.80;;;;;;;;;;6223165;23;20166;-90
2021/07/15 09:12:15;;;;;;;1.42;0.80;;;;;;;;;;6227484;23;20298;-89
2021/07/15 09:15:20;;;;;;;1.00;0.80;;;;;;;;;;6226035;22;20206;-89
2021/07/15 09:18:27;;;;;;;1.13;0.70;;;;;;;;;;6227417;23;20212;-88
2021/07/15 09:21:33;;;;;;;2.15;0.70;;;;;;;;;;6227127;23;20171;-91
2021/07/15 09:24:38;;;;;;;2.10;0.70;;;;;;;;;;6228484;23;20175;-91
2021/07/15 09:27:48;;;;;;;0.80;0.70;;;;;;;;;;6230842;23;20172;-89
2021/07/15 09:30:54;;;;;;;1.55;0.75;;;;;;;;;;6228746;22;20247;-89
2021/07/15 09:34:01;;;;;;;1.10;0.80;;;;;;;;;;6229820;23;20203;-85
2021/07/15 09:37:10;;;;;;;0.60;0.60;;;;;;;;;;6231419;23;20214;-90
2021/07/15 09:40:18;;;;;;;0.82;0.80;;;;;;;;;;6226719;23;20175;-88
2021/07/15 09:43:24;;;;;;;2.60;1.00;;;;;;;;;;6226950;23;20637;-89
2021/07/15 09:46:29;;;;;;;2.35;0.75;;;;;;;;;;6224840;23;20274;-90
2021/07/15 09:49:38;;;;;;;2.45;1.60;;;;;;;;;;6225801;23;20199;-88
2021/07/15 09:52:45;;;;;;;2.28;0.75;;;;;;;;;;6228257;23;20199;-89
2021/07/15 09:55:58;;;;;;;3.55;0.70;;;;;;;;;;6229879;23;20195;-91
2021/07/15 09:59:03;;;;;;;2.00;0.80;;;;;;;;;;6229674;23;20167;-89
2021/07/15 10:02:08;;;;;;;2.03;0.70;;;;;;;;;;6229527;23;20163;-89
2021/07/15 10:05:15;;;;;;;1.70;0.80;;;;;;;;;;6228993;23;20171;-92
2021/07/15 10:08:28;;;;;;;1.08;0.98;;;;;;;;;;6228429;22;20167;-92
2021/07/15 10:11:33;;;;;;;0.95;0.75;;;;;;;;;;6246552;22;20347;-90
2021/07/15 10:14:39;;;;;;;4.28;0.95;;;;;;;;;;6227007;23;20250;-93
2021/07/15 10:17:46;;;;;;;6.13;0.70;;;;;;;;;;6224786;23;20171;-92
2021/07/15 10:20:57;;;;;;;0.80;0.60;;;;;;;;;;6230521;22;20163;-89
2021/07/15 10:24:16;;;;;;;2.25;0.68;;;;;;;;;;6225573;22;20167;-90
2021/07/15 10:27:22;;;;;;;2.45;0.70;;;;;;;;;;6225523;23;20218;-92
2021/07/15 10:30:31;;;;;;;2.60;0.82;;;;;;;;;;6226719;22;20215;-91
2021/07/15 10:33:36;;;;;;;3.75;1.20;;;;;;;;;;6225454;23;20171;-92
2021/07/15 10:36:43;;;;;;;0.77;0.73;;;;;;;;;;6225969;23;20207;-89
2021/07/15 10:39:52;;;;;;;1.50;0.70;;;;;;;;;;6229121;22;20167;-89
2021/07/15 10:42:58;;;;;;;2.03;0.60;;;;;;;;;;6227390;23;20618;-90
2021/07/15 10:46:06;;;;;;;2.83;0.60;;;;;;;;;;6226395;22;20249;-92
2021/07/15 10:49:13;;;;;;;0.60;0.50;;;;;;;;;;6225791;23;20168;-89
2021/07/15 10:52:21;;;;;;;2.95;0.70;;;;;;;;;;6225755;23;20167;-91
2021/07/15 10:55:26;;;;;;;0.93;0.60;;;;;;;;;;6224068;23;20833;-89
2021/07/15 10:58:45;;;;;;;1.65;0.60;;;;;;;;;;6228784;23;20171;-92
2021/07/15 11:01:51;;;;;;;2.42;0.90;;;;;;;;;;6227231;22;20166;-89
2021/07/15 11:05:10;;;;;;;0.52;0.50;;;;;;;;;;6228768;22;20205;-92
2021/07/15 11:08:17;;;;;;;0.60;0.55;;;;;;;;;;6228750;22;20512;-91
2021/07/15 11:11:32;;;;;;;0.90;0.60;;;;;;;;;;6229773;22;20167;-89
2021/07/15 11:14:41;;;;;;;0.90;0.60;;;;;;;;;;6228371;22;20164;-91
2021/07/15 11:17:48;;;;;;;1.67;0.90;;;;;;;;;;6228264;23;20185;-90
2021/07/15 11:20:53;;;;;;;0.52;0.50;;;;;;;;;;6229945;23;20400;-90
2021/07/15 11:24:18;;;;;;;0.98;0.47;;;;;;;;;;6229004;23;20588;-92
2021/07/15 11:27:33;;;;;;;1.88;0.70;;;;;;;;;;6231778;23;20219;-90
2021/07/15 11:30:46;;;;;;;2.03;0.50;;;;;;;;;;6228794;22;20166;-91
2021/07/15 11:33:53;;;;;;;1.73;0.50;;;;;;;;;;6230071;22;20200;-88
2021/07/15 11:37:22;;;;;;;0.88;0.57;;;;;;;;;;6230568;22;20278;-91
2021/07/15 11:40:42;;;;;;;1.42;0.50;;;;;;;;;;6230348;23;20170;-89
2021/07/15 11:43:58;;;;;;;0.82;0.43;;;;;;;;;;6236149;22;20208;-90
2021/07/15 11:47:04;;;;;;;1.45;0.55;;;;;;;;;;6231140;23;20170;-88
2021/07/15 11:50:30;;;;;;;1.38;0.70;;;;;;;;;;6230115;23;20282;-91
2021/07/15 11:57:04;;;;;;;1.33;0.43;;;;;;;;;;6226715;23;20226;-90
2021/07/15 12:00:22;;;;;;;3.05;0.70;;;;;;;;;;6232622;23;20170;-90
2021/07/15 12:03:27;;;;;;;1.40;0.60;;;;;;;;;;6228278;22;20166;-89
2021/07/15 12:06:34;;;;;;;1.27;0.77;;;;;;;;;;6228044;23;20242;-92
2021/07/15 12:09:49;;;;;;;1.42;0.70;;;;;;;;;;6229797;23;20174;-90
2021/07/15 12:12:54;;;;;;;2.80;0.60;;;;;;;;;;6210381;23;20247;-90
2021/07/15 12:16:02;;;;;;;2.83;0.60;;;;;;;;;;6227156;23;20209;-90
2021/07/15 12:19:09;;;;;;;2.28;0.40;;;;;;;;;;6227136;23;20171;-90
2021/07/15 12:22:14;;;;;;;1.45;0.40;;;;;;;;;;6229248;22;20471;-93
2021/07/15 12:25:23;;;;;;;1.70;0.57;;;;;;;;;;6227769;23;20217;-90
2021/07/15 12:28:29;;;;;;;2.15;0.70;;;;;;;;;;6228532;23;20606;-91
2021/07/15 12:31:36;;;;;;;3.90;1.50;;;;;;;;;;6227130;23;20167;-90
2021/07/15 12:34:42;;;;;;;4.80;1.90;;;;;;;;;;6227705;22;20167;-90
2021/07/15 12:37:48;;;;;;;2.55;0.80;;;;;;;;;;6227064;23;20657;-92
2021/07/15 12:41:05;;;;;;;1.58;0.70;;;;;;;;;;6227671;23;20215;-90
2021/07/15 12:44:13;;;;;;;0.75;0.50;;;;;;;;;;6227172;22;20199;-90
2021/07/15 12:47:23;;;;;;;1.10;0.70;;;;;;;;;;6227370;23;20170;-89
2021/07/15 12:50:30;;;;;;;2.88;0.90;;;;;;;;;;6230240;23;20207;-89
2021/07/15 12:53:37;;;;;;;1.75;0.60;;;;;;;;;;6228824;23;20739;-91
2021/07/15 12:56:43;;;;;;;0.68;0.50;;;;;;;;;;6229418;23;20221;-89
2021/07/15 12:59:48;;;;;;;0.60;0.50;;;;;;;;;;6229260;22;20170;-88
2021/07/15 13:02:57;;;;;;;0.82;0.60;;;;;;;;;;6227589;23;20174;-89
2021/07/15 13:06:02;;;;;;;1.40;0.63;;;;;;;;;;6229802;23;20193;-90
2021/07/15 13:09:15;;;;;;;1.73;0.60;;;;;;;;;;6226895;23;20166;-91
2021/07/15 13:15:53;;;;;;;1.17;0.82;;;;;;;;;;6242892;23;20166;-90
2021/07/15 13:19:14;;;;;;;0.95;0.50;;;;;;;;;;6229143;22;20171;-88
2021/07/15 13:22:20;;;;;;;4.25;0.50;;;;;;;;;;6225254;23;20167;-89
2021/07/15 13:25:25;;;;;;;1.48;0.52;;;;;;;;;;6224743;23;20162;-89
2021/07/15 13:28:32;;;;;;;2.55;0.60;;;;;;;;;;6225950;23;20227;-89
2021/07/15 13:31:39;;;;;;;1.30;0.80;;;;;;;;;;6226502;23;20171;-89
2021/07/15 13:34:46;;;;;;;2.47;0.60;;;;;;;;;;6229463;23;20213;-88
2021/07/15 13:37:51;;;;;;;1.42;0.85;;;;;;;;;;6225960;23;20205;-89
2021/07/15 13:40:57;;;;;;;1.10;0.60;;;;;;;;;;6225406;22;20170;-88
2021/07/15 13:44:05;;;;;;;1.00;0.70;;;;;;;;;;6225017;22;20507;-87
2021/07/15 13:47:10;;;;;;;1.17;0.70;;;;;;;;;;6225588;23;20293;-89
2021/07/15 13:50:21;;;;;;;0.60;0.50;;;;;;;;;;6226845;23;20179;-88
2021/07/15 13:53:28;;;;;;;0.75;0.70;;;;;;;;;;6226839;23;20217;-90
2021/07/15 13:56:34;;;;;;;0.60;0.50;;;;;;;;;;6226974;23;20170;-90
2021/07/15 13:59:40;;;;;;;0.50;0.50;;;;;;;;;;6226715;22;20167;-89
2021/07/15 14:02:46;;;;;;;4.13;2.25;;;;;;;;;;6229401;23;20167;-90
2021/07/15 14:05:55;;;;;;;6.22;1.70;;;;;;;;;;6230853;22;20179;-92
2021/07/15 14:09:01;;;;;;;1.38;0.70;;;;;;;;;;6227913;23;20175;-90
2021/07/15 14:12:07;;;;;;;1.70;0.63;;;;;;;;;;6233305;22;20210;-92
2021/07/15 14:15:23;;;;;;;2.88;0.60;;;;;;;;;;6231905;23;20736;-89
2021/07/15 14:18:29;;;;;;;0.60;0.60;;;;;;;;;;6229315;23;20198;-90
2021/07/15 14:21:36;;;;;;;1.20;0.70;;;;;;;;;;6229178;22;20171;-88
2021/07/15 14:24:45;;;;;;;0.70;0.60;;;;;;;;;;6245831;22;20174;-89
2021/07/15 14:27:54;;;;;;;1.30;0.88;;;;;;;;;;6229355;23;20166;-89
2021/07/15 14:30:59;;;;;;;1.00;0.50;;;;;;;;;;6229239;22;20222;-89
2021/07/15 14:34:04;;;;;;;0.80;0.70;;;;;;;;;;6228568;23;20618;-90
2021/07/15 14:37:11;;;;;;;1.65;0.80;;;;;;;;;;6224966;22;20271;-91
2021/07/15 14:40:16;;;;;;;0.93;0.60;;;;;;;;;;6230305;23;20219;-89
2021/07/15 14:43:22;;;;;;;1.00;0.68;;;;;;;;;;6230643;22;20171;-88
2021/07/15 14:46:29;;;;;;;0.70;0.70;;;;;;;;;;6227510;23;20171;-89
2021/07/15 14:49:37;;;;;;;2.50;1.38;;;;;;;;;;6227133;23;20167;-91
2021/07/15 14:52:44;;;;;;;1.67;0.90;;;;;;;;;;6245223;23;20186;-88
2021/07/15 14:55:50;;;;;;;1.30;0.90;;;;;;;;;;6227637;23;20183;-89
2021/07/15 14:58:56;;;;;;;3.30;1.00;;;;;;;;;;6228907;23;20249;-88
2021/07/15 15:02:04;;;;;;;2.55;0.70;;;;;;;;;;6227699;23;20171;-88
2021/07/15 15:05:10;;;;;;;0.90;0.80;;;;;;;;;;6229263;23;20168;-89
2021/07/15 15:08:17;;;;;;;3.33;0.65;;;;;;;;;;6227376;22;20183;-89
2021/07/15 15:11:23;;;;;;;1.08;0.70;;;;;;;;;;6228202;22;20194;-89
2021/07/15 15:14:28;;;;;;;1.58;0.77;;;;;;;;;;6226826;23;20171;-88
2021/07/15 15:17:35;;;;;;;1.45;0.70;;;;;;;;;;6227338;22;20239;-88
2021/07/15 15:20:41;;;;;;;1.52;1.00;;;;;;;;;;6228561;22;20171;-89
2021/07/15 15:23:48;;;;;;;1.00;0.75;;;;;;;;;;6227059;23;20167;-87
2021/07/15 15:26:54;;;;;;;1.20;0.60;;;;;;;;;;6228035;22;20175;-87
2021/07/15 15:29:59;;;;;;;1.27;0.70;;;;;;;;;;6222893;23;20219;-87
2021/07/15 15:33:23;;;;;;;4.65;0.80;;;;;;;;;;6226298;23;20186;-88
2021/07/15 15:36:28;;;;;;;2.22;0.95;;;;;;;;;;6229280;23;20191;-88
2021/07/15 15:39:40;;;;;;;2.95;0.80;;;;;;;;;;6226907;23;20249;-87
2021/07/15 15:42:46;;;;;;;1.58;0.50;;;;;;;;;;6226328;23;20175;-87
2021/07/15 15:45:52;;;;;;;0.95;0.60;;;;;;;;;;6226833;23;20193;-85
2021/07/15 15:49:00;;;;;;;3.72;1.00;;;;;;;;;;6225262;22;20170;-89
2021/07/15 15:52:07;;;;;;;1.60;0.52;;;;;;;;;;6228949;23;20167;-86
2021/07/15 15:55:27;;;;;;;1.45;0.80;;;;;;;;;;6245301;23;20172;-89
2021/07/15 15:58:33;;;;;;;1.65;0.70;;;;;;;;;;6228205;22;20218;-86
2021/07/15 16:01:38;;;;;;;2.05;0.80;;;;;;;;;;6226945;23;20239;-87
2021/07/15 16:04:44;;;;;;;2.58;0.93;;;;;;;;;;6247617;22;20163;-88
2021/07/15 16:07:51;;;;;;;1.88;0.50;;;;;;;;;;6227693;23;20167;-88
2021/07/15 16:10:58;;;;;;;0.63;0.50;;;;;;;;;;6227941;23;20175;-88
2021/07/15 16:14:06;;;;;;;1.38;0.60;;;;;;;;;;6229592;22;20178;-89
2021/07/15 16:17:11;;;;;;;2.47;0.50;;;;;;;;;;6227855;23;20163;-90
2021/07/15 16:20:18;;;;;;;1.83;0.80;;;;;;;;;;6229553;23;20174;-88
2021/07/15 16:23:24;;;;;;;2.10;0.80;;;;;;;;;;6232986;23;20170;-87
2021/07/15 16:26:31;;;;;;;2.60;1.00;;;;;;;;;;6227642;22;20179;-89
2021/07/15 16:29:36;;;;;;;2.70;0.82;;;;;;;;;;6226122;23;20638;-89
2021/07/15 16:32:41;;;;;;;1.50;0.82;;;;;;;;;;6226640;23;20681;-88
2021/07/15 16:35:48;;;;;;;2.78;1.27;;;;;;;;;;6226030;23;20178;-87
2021/07/15 16:38:53;;;;;;;1.90;0.80;;;;;;;;;;6227208;23;20187;-88
2021/07/15 16:42:00;;;;;;;0.55;0.50;;;;;;;;;;6228793;23;20172;-89
2021/07/15 16:45:05;;;;;;;0.98;0.50;;;;;;;;;;6229864;22;20166;-88
2021/07/15 16:48:10;;;;;;;1.63;0.73;;;;;;;;;;6228048;23;20162;-88
2021/07/15 16:51:16;;;;;;;1.70;0.82;;;;;;;;;;6228516;23;20380;-87
2021/07/15 16:54:21;;;;;;;2.75;0.70;;;;;;;;;;6246023;23;20254;-89
2021/07/15 16:57:29;;;;;;;2.50;1.48;;;;;;;;;;6228334;23;20515;-89
2021/07/15 17:00:35;;;;;;;1.02;0.80;;;;;;;;;;6229176;23;20295;-89
2021/07/15 17:03:40;;;;;;;2.67;1.00;;;;;;;;;;6229058;23;20247;-88
2021/07/15 17:06:46;;;;;;;0.75;0.60;;;;;;;;;;6242395;23;20166;-90
2021/07/15 17:09:51;;;;;;;2.80;0.93;;;;;;;;;;6224647;23;20159;-89
2021/07/15 17:13:01;;;;;;;1.17;0.70;;;;;;;;;;6227455;23;20170;-90
2021/07/15 17:16:06;;;;;;;2.55;0.90;;;;;;;;;;6224898;22;20452;-90
2021/07/15 17:19:12;;;;;;;3.80;0.77;;;;;;;;;;6226508;23;20261;-89
2021/07/15 17:22:17;;;;;;;0.60;0.60;;;;;;;;;;6226471;23;20226;-90
2021/07/15 17:25:22;;;;;;;3.00;1.00;;;;;;;;;;6227403;23;20234;-89
2021/07/15 17:28:29;;;;;;;2.20;0.85;;;;;;;;;;6227216;22;20614;-90
2021/07/15 17:31:37;;;;;;;3.80;0.90;;;;;;;;;;6227901;22;20166;-91
2021/07/15 17:34:44;;;;;;;4.10;1.50;;;;;;;;;;6228106;22;20168;-91
2021/07/15 17:38:10;;;;;;;4.05;0.82;;;;;;;;;;6227248;22;20281;-91
2021/07/15 17:41:16;;;;;;;18.38;10.85;;;;;;;;;;6226614;22;20243;-89
2021/07/15 17:44:24;;;;;;;3.17;0.80;;;;;;;;;;6226792;23;20195;-90
2021/07/15 17:47:30;;;;;;;1.17;0.68;;;;;;;;;;6232001;23;20194;-89
2021/07/15 17:50:36;;;;;;;2.67;0.93;;;;;;;;;;6231449;23;20575;-89
2021/07/15 17:53:41;;;;;;;2.25;0.70;;;;;;;;;;6229493;23;20159;-88
2021/07/15 17:56:47;;;;;;;2.28;0.70;;;;;;;;;;6231985;23;20294;-89
2021/07/15 17:59:53;;;;;;;1.65;0.75;;;;;;;;;;6232278;23;20614;-90
2021/07/15 18:02:59;;;;;;;3.75;1.48;;;;;;;;;;6233866;23;20175;-90
2021/07/15 18:06:05;;;;;;;3.30;1.33;;;;;;;;;;6233992;22;20167;-90
2021/07/15 18:09:10;;;;;;;6.30;1.77;;;;;;;;;;6229938;23;20166;-91
2021/07/15 18:12:15;;;;;;;2.25;0.90;;;;;;;;;;6230688;22;20210;-91
2021/07/15 18:15:22;;;;;;;0.90;0.80;;;;;;;;;;6232787;22;20211;-89
2021/07/15 18:18:27;;;;;;;2.25;0.80;;;;;;;;;;6229729;23;20345;-90
2021/07/15 18:21:32;;;;;;;3.50;1.00;;;;;;;;;;6230244;23;20174;-90
2021/07/15 18:24:38;;;;;;;4.25;1.10;;;;;;;;;;6230586;22;20175;-90
2021/07/15 18:27:45;;;;;;;3.42;1.40;;;;;;;;;;6230775;23;20163;-89
2021/07/15 18:31:06;;;;;;;2.38;1.10;;;;;;;;;;6233064;23;20236;-90
2021/07/15 18:34:13;;;;;;;2.63;1.30;;;;;;;;;;6233118;23;20221;-90
2021/07/15 18:37:22;;;;;;;1.77;1.13;;;;;;;;;;6233529;23;20189;-90
2021/07/15 18:40:32;;;;;;;2.63;1.00;;;;;;;;;;6234672;22;20175;-90
2021/07/15 18:43:39;;;;;;;2.25;1.13;;;;;;;;;;6231754;23;20627;-89
2021/07/15 18:46:51;;;;;;;4.75;2.40;;;;;;;;;;6249634;23;20155;-90
2021/07/15 18:50:03;;;;;;;3.55;1.30;;;;;;;;;;6231636;22;20176;-90